createdAt,value
2022-10-04T00:01:11.104Z,68.90
2022-10-04T00:03:44.849Z,68.60
2022-10-04T00:06:21.505Z,68.30
2022-10-04T00:08:55.075Z,68.30
2022-10-04T00:11:27.111Z,68.60
2022-10-04T00:13:57.520Z,69.10
2022-10-04T00:16:31.210Z,69.20
2022-10-04T00:19:17.450Z,69.40
2022-10-04T00:22:12.648Z,69.60
2022-10-04T00:25:22.470Z,70.00
2022-10-04T00:28:17.901Z,70.00
2022-10-04T00:30:46.208Z,69.90
2022-10-04T00:33:38.411Z,69.40
2022-10-04T00:36:48.445Z,69.40
2022-10-04T00:39:43.239Z,69.40
2022-10-04T00:42:47.989Z,69.60
2022-10-04T00:45:40.451Z,69.70
2022-10-04T00:48:35.368Z,69.70
2022-10-04T00:51:11.887Z,69.90
2022-10-04T00:53:51.104Z,69.90
2022-10-04T00:56:25.907Z,69.90
2022-10-04T00:59:16.427Z,70.70
2022-10-04T01:01:48.799Z,70.20
2022-10-04T01:04:28.812Z,69.90
2022-10-04T01:07:00.089Z,70.00
2022-10-04T01:09:29.597Z,69.80
2022-10-04T01:12:04.748Z,69.50
2022-10-04T01:14:45.686Z,69.30
2022-10-04T01:17:13.816Z,69.30
2022-10-04T01:19:52.258Z,69.30
2022-10-04T01:22:41.352Z,69.40
2022-10-04T01:25:10.453Z,69.70
2022-10-04T01:27:43.679Z,69.70
2022-10-04T01:30:14.192Z,69.90
2022-10-04T01:32:45.049Z,70.10
2022-10-04T01:35:14.987Z,70.20
2022-10-04T01:37:44.484Z,70.30
2022-10-04T01:40:13.181Z,70.30
2022-10-04T01:42:46.643Z,70.30
2022-10-04T01:45:20.103Z,70.40
2022-10-04T01:47:54.282Z,70.20
2022-10-04T01:50:32.811Z,70.20
2022-10-04T01:53:11.636Z,70.40
2022-10-04T01:55:42.625Z,70.50
2022-10-04T01:58:15.593Z,70.70
2022-10-04T02:00:51.497Z,70.80
2022-10-04T02:03:25.426Z,71.10
2022-10-04T02:05:59.974Z,70.90
2022-10-04T02:08:32.975Z,70.70
2022-10-04T02:11:03.047Z,70.70
2022-10-04T02:13:38.107Z,70.80
2022-10-04T02:16:11.558Z,71.00
2022-10-04T02:18:41.822Z,71.20
2022-10-04T02:21:10.494Z,71.20
2022-10-04T02:23:42.105Z,71.20
2022-10-04T02:26:11.841Z,71.30
2022-10-04T02:28:40.542Z,71.30
2022-10-04T02:31:27.590Z,71.50
2022-10-04T02:33:59.469Z,71.60
2022-10-04T02:36:29.529Z,71.60
2022-10-04T02:39:03.827Z,71.90
2022-10-04T02:41:35.746Z,72.10
2022-10-04T02:44:11.266Z,71.80
2022-10-04T02:46:47.542Z,71.70
2022-10-04T02:49:25.503Z,71.60
2022-10-04T02:52:01.457Z,71.50
2022-10-04T02:54:37.115Z,71.60
2022-10-04T02:57:05.884Z,71.70
2022-10-04T02:59:35.629Z,71.90
2022-10-04T03:02:03.910Z,71.90
2022-10-04T03:04:38.463Z,71.80
2022-10-04T03:07:09.766Z,71.80
2022-10-04T03:09:41.151Z,71.60
2022-10-04T03:12:13.993Z,71.50
2022-10-04T03:14:42.287Z,71.20
2022-10-04T03:17:10.825Z,71.00
2022-10-04T03:19:39.891Z,71.00
2022-10-04T03:22:10.399Z,71.00
2022-10-04T03:24:46.983Z,71.00
2022-10-04T03:27:18.227Z,71.00
2022-10-04T03:29:46.794Z,71.10
2022-10-04T03:32:16.847Z,71.10
2022-10-04T03:34:57.146Z,71.20
2022-10-04T03:37:27.191Z,71.40
2022-10-04T03:39:58.281Z,71.70
2022-10-04T03:42:28.927Z,71.80
2022-10-04T03:45:01.952Z,71.80
2022-10-04T03:47:33.707Z,71.70
2022-10-04T03:50:06.493Z,71.60
2022-10-04T03:52:37.885Z,71.60
2022-10-04T03:55:09.601Z,71.80
2022-10-04T03:57:39.148Z,71.80
2022-10-04T04:00:08.508Z,71.80
2022-10-04T04:02:46.199Z,71.60
2022-10-04T04:05:20.930Z,71.60
2022-10-04T04:07:57.528Z,71.70
2022-10-04T04:10:30.622Z,71.80
2022-10-04T04:13:02.333Z,71.90
2022-10-04T04:15:32.571Z,71.90
2022-10-04T04:18:04.100Z,71.90
2022-10-04T04:20:35.115Z,71.80
2022-10-04T04:23:11.026Z,71.80
2022-10-04T04:25:43.312Z,71.80
2022-10-04T04:28:22.860Z,71.90
2022-10-04T04:30:54.559Z,71.90
2022-10-04T04:33:31.094Z,71.80
2022-10-04T04:36:06.456Z,71.70
2022-10-04T04:38:56.399Z,71.80
2022-10-04T04:41:27.973Z,71.80
2022-10-04T04:43:56.318Z,71.80
2022-10-04T04:46:27.495Z,71.80
2022-10-04T04:49:01.212Z,71.80
2022-10-04T04:51:31.425Z,71.80
2022-10-04T04:54:01.963Z,71.80
2022-10-04T04:56:32.389Z,71.80
2022-10-04T04:59:04.471Z,71.80
2022-10-04T05:01:36.147Z,71.80
2022-10-04T05:04:06.901Z,71.90
2022-10-04T05:06:36.417Z,71.90
2022-10-04T05:09:05.469Z,72.00
2022-10-04T05:11:39.844Z,72.10
2022-10-04T05:14:10.807Z,72.30
2022-10-04T05:16:44.249Z,72.10
2022-10-04T05:19:17.571Z,72.20
2022-10-04T05:21:48.426Z,72.20
2022-10-04T05:24:23.292Z,72.30
2022-10-04T05:26:55.158Z,72.40
2022-10-04T05:29:26.884Z,72.40
2022-10-04T05:32:04.288Z,72.30
2022-10-04T05:34:39.990Z,72.30
2022-10-04T05:37:20.683Z,72.20
2022-10-04T05:40:00.027Z,72.30
2022-10-04T05:42:38.598Z,72.30
2022-10-04T05:45:20.781Z,72.40
2022-10-04T05:47:49.414Z,72.50
2022-10-04T05:50:20.854Z,72.40
2022-10-04T05:52:52.440Z,72.30
2022-10-04T05:55:28.752Z,72.50
2022-10-04T05:58:25.896Z,72.70
2022-10-04T06:01:18.755Z,72.90
2022-10-04T06:04:10.175Z,72.80
2022-10-04T06:06:42.345Z,72.90
2022-10-04T06:09:19.995Z,72.90
2022-10-04T06:12:02.281Z,72.90
2022-10-04T06:14:58.596Z,72.80
2022-10-04T06:17:40.715Z,72.80
2022-10-04T06:20:19.073Z,72.80
2022-10-04T06:22:49.669Z,72.70
2022-10-04T06:25:27.487Z,72.40
2022-10-04T06:28:13.472Z,72.40
2022-10-04T06:30:57.997Z,73.10
2022-10-04T06:33:44.595Z,72.50
2022-10-04T06:36:34.682Z,72.50
2022-10-04T06:39:28.108Z,72.60
2022-10-04T06:42:15.667Z,72.70
2022-10-04T06:45:01.723Z,72.70
2022-10-04T06:47:46.601Z,72.80
2022-10-04T06:50:24.996Z,72.70
2022-10-04T06:53:24.566Z,72.70
2022-10-04T06:56:14.912Z,72.80
2022-10-04T06:59:19.416Z,72.80
2022-10-04T07:01:51.496Z,72.60
2022-10-04T07:04:49.941Z,72.50
2022-10-04T07:07:27.126Z,72.50
2022-10-04T07:10:01.238Z,72.60
2022-10-04T07:12:30.613Z,72.50
2022-10-04T07:15:03.735Z,72.40
2022-10-04T07:17:40.118Z,72.60
2022-10-04T07:20:21.722Z,72.60
2022-10-04T07:22:57.147Z,72.60
2022-10-04T07:25:30.594Z,72.70
2022-10-04T07:28:22.040Z,72.60
2022-10-04T07:30:53.985Z,72.70
2022-10-04T07:33:23.283Z,72.60
2022-10-04T07:35:57.380Z,72.70
2022-10-04T07:38:30.508Z,72.50
2022-10-04T07:41:10.345Z,72.40
2022-10-04T07:43:49.027Z,72.60
2022-10-04T07:46:25.594Z,72.50
2022-10-04T07:48:54.383Z,72.60
2022-10-04T07:51:34.207Z,72.50
2022-10-04T07:54:10.335Z,72.80
2022-10-04T07:56:47.342Z,72.90
2022-10-04T07:59:33.220Z,73.10
2022-10-04T08:02:17.664Z,73.20
2022-10-04T08:04:54.319Z,73.20
2022-10-04T08:07:32.311Z,73.10
2022-10-04T08:10:08.409Z,73.00
2022-10-04T08:12:49.563Z,72.90
2022-10-04T08:15:36.075Z,73.20
2022-10-04T08:18:22.519Z,73.50
2022-10-04T08:20:57.916Z,73.50
2022-10-04T08:23:57.101Z,73.80
2022-10-04T08:26:46.304Z,73.80
2022-10-04T08:29:47.291Z,73.80
2022-10-04T08:32:27.577Z,73.80
2022-10-04T08:35:16.338Z,73.80
2022-10-04T08:38:00.371Z,73.90
2022-10-04T08:41:16.446Z,73.80
2022-10-04T08:44:17.098Z,74.20
2022-10-04T08:47:10.703Z,74.00
2022-10-04T08:50:22.907Z,74.00
2022-10-04T08:53:08.734Z,73.70
2022-10-04T08:55:58.442Z,73.50
2022-10-04T08:58:55.698Z,73.40
2022-10-04T09:01:53.574Z,73.00
2022-10-04T09:04:47.856Z,72.40
2022-10-04T09:07:46.293Z,72.30
2022-10-04T09:10:45.496Z,71.80
2022-10-04T09:13:34.451Z,71.40
2022-10-04T09:16:16.691Z,71.20
2022-10-04T09:19:00.367Z,71.50
2022-10-04T09:21:44.091Z,71.30
2022-10-04T09:24:59.843Z,71.20
2022-10-04T09:28:01.353Z,70.90
2022-10-04T09:30:43.627Z,70.40
2022-10-04T09:33:57.667Z,70.30
2022-10-04T09:36:52.617Z,70.10
2022-10-04T09:39:54.547Z,70.00
2022-10-04T09:42:40.989Z,69.80
2022-10-04T09:45:35.470Z,69.70
2022-10-04T09:48:25.372Z,69.40
2022-10-04T09:51:32.302Z,69.40
2022-10-04T09:54:30.475Z,69.30
2022-10-04T09:57:21.783Z,69.30
2022-10-04T10:00:23.338Z,69.10
2022-10-04T10:03:21.278Z,68.90
2022-10-04T10:06:12.296Z,68.80
2022-10-04T10:08:55.583Z,68.70
2022-10-04T10:11:49.652Z,68.60
2022-10-04T10:14:55.713Z,68.50
2022-10-04T10:17:37.953Z,68.20
2022-10-04T10:20:44.622Z,68.10
2022-10-04T10:23:49.059Z,68.00
2022-10-04T10:26:42.702Z,67.90
2022-10-04T10:29:37.166Z,68.00
2022-10-04T10:32:45.883Z,67.60
2022-10-04T10:35:43.372Z,67.40
2022-10-04T10:38:35.573Z,67.10
2022-10-04T10:41:12.454Z,67.20
2022-10-04T10:44:03.369Z,68.00
2022-10-04T10:46:47.851Z,67.10
2022-10-04T10:49:37.811Z,66.90
2022-10-04T10:52:42.575Z,66.50
2022-10-04T10:55:30.948Z,66.10
2022-10-04T10:58:37.101Z,65.90
2022-10-04T11:01:23.806Z,65.70
2022-10-04T11:04:18.651Z,65.40
2022-10-04T11:07:16.415Z,65.50
2022-10-04T11:10:10.757Z,65.10
2022-10-04T11:13:08.299Z,65.10
2022-10-04T11:16:03.294Z,65.10
2022-10-04T11:19:04.763Z,64.50
2022-10-04T11:22:07.535Z,64.50
2022-10-04T11:25:17.827Z,64.40
2022-10-04T11:27:57.391Z,64.50
2022-10-04T11:30:29.852Z,64.50
2022-10-04T11:33:39.735Z,64.30
2022-10-04T11:36:29.470Z,64.40
2022-10-04T11:39:24.653Z,64.80
2022-10-04T11:41:57.708Z,64.30
2022-10-04T11:44:49.457Z,64.30
2022-10-04T11:47:36.081Z,64.30
2022-10-04T11:50:27.017Z,64.30
2022-10-04T11:53:25.871Z,64.10
2022-10-04T11:56:35.707Z,63.80
2022-10-04T11:59:19.633Z,63.60
2022-10-04T12:02:17.037Z,63.40
2022-10-04T12:05:21.170Z,63.00
2022-10-04T12:08:05.446Z,62.60
2022-10-04T12:10:38.466Z,62.90
2022-10-04T12:13:39.073Z,62.90
2022-10-04T12:16:36.344Z,62.70
2022-10-04T12:19:40.741Z,62.40
2022-10-04T12:22:43.754Z,62.70
2022-10-04T12:25:49.240Z,62.20
2022-10-04T12:28:44.245Z,62.60
2022-10-04T12:31:24.784Z,62.20
2022-10-04T12:33:59.800Z,62.10
2022-10-04T12:36:57.908Z,61.30
2022-10-04T12:40:14.542Z,61.00
2022-10-04T12:42:53.333Z,61.30
2022-10-04T12:45:50.246Z,61.60
2022-10-04T12:48:28.676Z,61.10
2022-10-04T12:51:08.256Z,60.90
2022-10-04T12:53:49.221Z,61.20
2022-10-04T12:56:32.110Z,61.20
2022-10-04T12:59:15.413Z,61.10
2022-10-04T13:01:52.976Z,60.90
2022-10-04T13:04:30.519Z,61.00
2022-10-04T13:07:15.973Z,61.00
2022-10-04T13:10:19.145Z,61.40
2022-10-04T13:13:20.343Z,61.00
2022-10-04T13:18:56.426Z,60.70
2022-10-04T13:21:52.890Z,60.80
2022-10-04T13:24:29.356Z,61.50
2022-10-04T13:27:03.482Z,60.90
2022-10-04T13:29:37.232Z,61.00
2022-10-04T13:32:14.494Z,60.90
2022-10-04T13:34:49.347Z,61.20
2022-10-04T13:37:31.478Z,60.80
2022-10-04T13:40:21.505Z,60.80
2022-10-04T13:43:22.641Z,60.60
2022-10-04T13:46:06.751Z,60.60
2022-10-04T13:48:49.656Z,60.60
2022-10-04T13:52:17.143Z,60.70
2022-10-04T13:55:13.798Z,60.50
2022-10-04T13:57:50.857Z,60.50
2022-10-04T14:00:36.023Z,60.30
2022-10-04T14:03:27.745Z,60.30
2022-10-04T14:06:36.551Z,60.30
2022-10-04T14:09:26.673Z,60.40
2022-10-04T14:12:54.858Z,60.00
2022-10-04T14:15:52.752Z,59.70
2022-10-04T14:18:55.800Z,59.50
2022-10-04T14:21:51.365Z,59.80
2022-10-04T14:25:06.810Z,59.80
2022-10-04T14:28:13.308Z,59.90
2022-10-04T14:30:56.627Z,59.90
2022-10-04T14:34:07.288Z,59.80
2022-10-04T14:37:03.699Z,60.00
2022-10-04T14:40:00.836Z,60.10
2022-10-04T14:42:52.183Z,59.70
2022-10-04T14:45:37.959Z,59.70
2022-10-04T14:48:38.854Z,59.80
2022-10-04T14:51:42.408Z,59.90
2022-10-04T14:54:16.942Z,59.90
2022-10-04T14:57:01.609Z,60.20
2022-10-04T14:59:53.787Z,60.10
2022-10-04T15:02:38.446Z,60.00
2022-10-04T15:05:35.604Z,60.80
2022-10-04T15:08:39.303Z,59.90
2022-10-04T15:11:10.362Z,59.80
2022-10-04T15:13:50.592Z,59.90
2022-10-04T15:16:33.596Z,59.80
2022-10-04T15:19:09.568Z,59.80
2022-10-04T15:21:46.456Z,60.00
2022-10-04T15:24:32.687Z,59.80
2022-10-04T15:27:44.319Z,59.70
2022-10-04T15:30:20.916Z,59.70
2022-10-04T15:32:56.861Z,59.70
2022-10-04T15:35:36.223Z,59.70
2022-10-04T15:38:18.997Z,59.90
2022-10-04T15:41:02.075Z,60.10
2022-10-04T15:43:36.771Z,60.00
2022-10-04T15:46:41.207Z,60.10
2022-10-04T15:49:25.723Z,60.20
2022-10-04T15:52:41.595Z,60.10
2022-10-04T15:55:32.146Z,60.20
2022-10-04T15:58:34.316Z,60.30
2022-10-04T16:01:26.352Z,60.20
2022-10-04T16:04:11.471Z,60.10
2022-10-04T16:06:49.051Z,60.80
2022-10-04T16:09:27.607Z,60.40
2022-10-04T16:12:06.286Z,60.50
2022-10-04T16:15:19.855Z,60.40
2022-10-04T16:18:08.510Z,60.60
2022-10-04T16:21:02.113Z,60.40
2022-10-04T16:23:36.862Z,60.50
2022-10-04T16:26:08.137Z,60.60
2022-10-04T16:29:00.732Z,60.70
2022-10-04T16:31:53.442Z,60.80
2022-10-04T16:34:48.190Z,60.90
2022-10-04T16:37:27.211Z,61.00
2022-10-04T16:40:00.970Z,61.10
2022-10-04T16:42:35.307Z,61.20
2022-10-04T16:45:41.193Z,61.30
2022-10-04T16:48:27.010Z,61.30
2022-10-04T16:51:27.875Z,61.30
2022-10-04T16:54:04.832Z,61.30
2022-10-04T16:56:53.922Z,61.40
2022-10-04T16:59:48.403Z,61.60
2022-10-04T17:02:46.895Z,61.70
2022-10-04T17:05:59.511Z,61.80
2022-10-04T17:08:53.268Z,62.00
2022-10-04T17:11:44.222Z,62.00
2022-10-04T17:14:46.378Z,62.10
2022-10-04T17:17:24.278Z,62.30
2022-10-04T17:19:56.930Z,62.40
2022-10-04T17:22:39.371Z,62.60
2022-10-04T17:25:23.363Z,62.60
2022-10-04T17:27:54.945Z,62.70
2022-10-04T17:30:25.873Z,62.80
2022-10-04T17:33:08.936Z,62.90
2022-10-04T17:35:58.446Z,62.90
2022-10-04T17:38:36.351Z,62.90
2022-10-04T17:41:14.245Z,62.90
2022-10-04T17:44:01.347Z,63.10
2022-10-04T17:46:38.023Z,63.10
2022-10-04T17:49:37.361Z,63.30
2022-10-04T17:52:36.744Z,63.30
2022-10-04T17:55:19.683Z,63.40
2022-10-04T17:57:52.711Z,63.40
2022-10-04T18:00:23.788Z,63.50
2022-10-04T18:03:12.888Z,63.50
2022-10-04T18:05:59.246Z,63.50
2022-10-04T18:08:41.357Z,63.60
2022-10-04T18:11:16.715Z,63.70
2022-10-04T18:13:49.726Z,63.70
2022-10-04T18:16:25.008Z,63.70
2022-10-04T18:18:53.212Z,63.70
2022-10-04T18:21:27.395Z,63.80
2022-10-04T18:24:02.309Z,64.00
2022-10-04T18:26:33.663Z,64.10
2022-10-04T18:29:03.539Z,64.20
2022-10-04T18:31:36.878Z,64.40
2022-10-04T18:34:19.575Z,64.60
2022-10-04T18:37:05.512Z,64.60
2022-10-04T18:39:45.500Z,64.70
2022-10-04T18:42:21.532Z,64.70
2022-10-04T18:44:59.158Z,64.80
2022-10-04T18:47:34.637Z,64.90
2022-10-04T18:50:14.750Z,65.20
2022-10-04T18:52:57.540Z,65.30
2022-10-04T18:55:34.540Z,65.50
2022-10-04T18:58:28.640Z,65.40
2022-10-04T19:01:25.603Z,65.30
2022-10-04T19:03:59.557Z,65.40
2022-10-04T19:06:36.553Z,65.40
2022-10-04T19:09:23.219Z,65.40
2022-10-04T19:11:57.380Z,65.60
2022-10-04T19:14:34.920Z,65.70
2022-10-04T19:17:13.480Z,65.90
2022-10-04T19:19:48.198Z,66.10
2022-10-04T19:22:29.153Z,66.20
2022-10-04T19:25:19.451Z,66.10
2022-10-04T19:27:51.457Z,66.10
2022-10-04T19:30:22.243Z,66.00
2022-10-04T19:33:11.728Z,66.00
2022-10-04T19:35:57.719Z,66.10
2022-10-04T19:38:57.729Z,66.30
2022-10-04T19:41:44.490Z,66.40
2022-10-04T19:44:24.845Z,66.60
2022-10-04T19:47:01.773Z,66.80
2022-10-04T19:49:42.999Z,67.00
2022-10-04T19:52:25.007Z,67.00
2022-10-04T19:54:54.462Z,67.20
2022-10-04T19:57:38.191Z,66.90
2022-10-04T20:00:22.745Z,67.30
2022-10-04T20:02:53.662Z,67.20
2022-10-04T20:05:29.596Z,66.90
2022-10-04T20:08:12.624Z,66.90
2022-10-04T20:10:41.393Z,66.90
2022-10-04T20:13:26.456Z,66.90
2022-10-04T20:15:56.949Z,67.00
2022-10-04T20:18:58.655Z,67.00
2022-10-04T20:21:34.879Z,67.00
2022-10-04T20:24:04.981Z,67.20
2022-10-04T20:26:56.008Z,67.40
2022-10-04T20:30:06.878Z,67.80
2022-10-04T20:32:55.856Z,67.60
2022-10-04T20:36:07.020Z,67.60
2022-10-04T20:38:52.322Z,67.50
2022-10-04T20:42:05.139Z,67.40
2022-10-04T20:44:54.182Z,67.20
2022-10-04T20:47:47.729Z,67.30
2022-10-04T20:50:29.536Z,67.70
2022-10-04T20:53:01.063Z,67.80
2022-10-04T20:55:31.146Z,67.90
2022-10-04T20:58:03.972Z,68.10
2022-10-04T21:00:35.408Z,68.30
2022-10-04T21:03:17.826Z,68.40
2022-10-04T21:06:01.143Z,68.80
2022-10-04T21:08:30.062Z,69.30
2022-10-04T21:11:20.025Z,69.40
2022-10-04T21:13:54.522Z,70.00
2022-10-04T21:16:50.899Z,70.00
2022-10-04T21:19:46.597Z,70.00
2022-10-04T21:22:38.401Z,70.10
2022-10-04T21:25:28.253Z,69.90
2022-10-04T21:28:16.447Z,69.90
2022-10-04T21:30:44.594Z,69.40
2022-10-04T21:33:12.662Z,69.20
2022-10-04T21:35:40.825Z,69.10
2022-10-04T21:38:10.862Z,69.00
2022-10-04T21:40:38.946Z,69.30
2022-10-04T21:43:07.086Z,69.70
2022-10-04T21:45:35.332Z,70.00
2022-10-04T21:48:03.437Z,70.10
2022-10-04T21:50:31.512Z,70.20
2022-10-04T21:52:59.815Z,70.20
2022-10-04T21:55:29.301Z,70.30
2022-10-04T21:57:57.377Z,70.30
2022-10-04T22:00:25.468Z,70.40
2022-10-04T22:02:53.625Z,70.30
2022-10-04T22:05:21.985Z,70.30
2022-10-04T22:07:50.047Z,70.20
2022-10-04T22:10:19.003Z,70.20
2022-10-04T22:12:48.498Z,70.10
2022-10-04T22:15:16.685Z,70.00
2022-10-04T22:17:44.754Z,69.90
2022-10-04T22:20:12.848Z,69.90
2022-10-04T22:22:40.959Z,70.50
2022-10-04T22:25:16.262Z,69.80
2022-10-04T22:27:44.422Z,70.00
2022-10-04T22:30:24.009Z,70.00
2022-10-04T22:32:54.890Z,70.40
2022-10-04T22:35:23.356Z,70.40
2022-10-04T22:37:52.124Z,70.70
2022-10-04T22:40:22.724Z,70.90
2022-10-04T22:42:53.109Z,71.10
2022-10-04T22:45:25.063Z,71.30
2022-10-04T22:47:53.151Z,71.40
2022-10-04T22:50:39.444Z,71.20
2022-10-04T22:53:14.730Z,71.60
2022-10-04T22:55:42.915Z,71.50
2022-10-04T22:58:14.103Z,71.50
2022-10-04T23:00:44.558Z,71.60
2022-10-04T23:03:24.085Z,71.60
2022-10-04T23:05:52.208Z,71.60
2022-10-04T23:08:20.286Z,71.50
2022-10-04T23:10:48.687Z,71.20
2022-10-04T23:13:19.225Z,71.00
2022-10-04T23:15:50.760Z,70.70
2022-10-04T23:18:20.141Z,70.60
2022-10-04T23:20:52.847Z,70.70
2022-10-04T23:23:22.213Z,70.90
2022-10-04T23:25:51.047Z,70.90
2022-10-04T23:28:20.449Z,71.00
2022-10-04T23:31:00.961Z,71.10
2022-10-04T23:33:29.076Z,71.10
2022-10-04T23:35:57.583Z,71.00
2022-10-04T23:38:26.226Z,71.00
2022-10-04T23:40:54.306Z,71.10
2022-10-04T23:43:25.982Z,71.20
2022-10-04T23:45:57.434Z,71.50
2022-10-04T23:48:28.074Z,71.50
2022-10-04T23:50:59.797Z,71.50
2022-10-04T23:53:29.707Z,71.30
2022-10-04T23:55:59.199Z,71.30
2022-10-04T23:58:35.127Z,71.10
